Terminal Aerodrome Forecast
Issued by NWS

Home | Current Version | Previous Version | Text Only | Print | Product List | Glossary On
Versions: 1 2 3 4 5 6 7 8 9 10 11 12 13 14 15 16 17 18 19 20 21 22 23 24 25 26 27 28 29 30 31 32 33 34
000
FTAK31 PANC 222322
TAFADL
TAF
PADL 222322Z 2300/2324 18006KT P6SM VCSH BKN025
      TEMPO 2300/2304 4SM -SHRASN
     FM230900 05006KT P6SM SCT050 WS020/21035KT
     FM231300 03008KT 4SM BR OVC015 WS020/20035KT
     FM231700 10012KT 4SM BR OVC012 WS020/18045KT
     FM232100 10014G22KT 2SM BR OVC010 WS020/19040KT=

USA.gov is the U.S. government's official web portal to all federal, state and local government web resources and services.